Time;durP1;ratioP1;P1;durP2;ratioP2;P2;SDS_P1;SDS_P2;PMS_P1;PMS_P2;Temp;Humidity;BMP_temperature;BMP_pressure;BME280_temperature;BME280_humidity;BME280_pressure;Samples;Min_cycle;Max_cycle;Signal;HPM_P1;HPM_P2
2022/11/08 00:01:30;;;;;;;73.32;51.35;;;17.50;75.60;;;;;;4948584;28;95282;-54
2022/11/08 00:03:07;;;;;;;71.88;51.33;;;17.50;75.60;;;;;;4945766;28;99443;-52
2022/11/08 00:14:00;;;;;;;72.22;51.70;;;17.50;75.40;;;;;;4940769;28;96474;-53
2022/11/08 00:16:27;;;;;;;72.45;51.50;;;17.50;75.50;;;;;;4948217;28;96345;-52
2022/11/08 00:18:53;;;;;;;73.97;51.38;;;17.40;75.40;;;;;;4947968;28;95333;-53
2022/11/08 00:21:18;;;;;;;70.43;51.08;;;17.40;75.40;;;;;;4942898;28;97503;-53
2022/11/08 00:23:47;;;;;;;72.60;51.10;;;17.40;75.40;;;;;;4948630;28;95838;-52
2022/11/08 00:26:12;;;;;;;72.85;51.17;;;17.40;75.30;;;;;;4946539;28;95931;-55
2022/11/08 00:28:38;;;;;;;71.53;50.95;;;17.40;75.20;;;;;;4955824;28;96112;-54
2022/11/08 00:31:05;;;;;;;71.82;51.05;;;17.40;75.30;;;;;;4947210;28;95960;-53
2022/11/08 00:33:31;;;;;;;71.88;50.97;;;17.40;75.30;;;;;;4937157;28;98070;-54
2022/11/08 00:36:01;;;;;;;72.32;50.90;;;17.40;75.30;;;;;;4949922;28;95131;-55
2022/11/08 00:38:26;;;;;;;72.50;51.10;;;17.40;75.30;;;;;;4941752;28;95004;-53
2022/11/08 00:40:52;;;;;;;72.72;51.42;;;17.40;75.20;;;;;;4941301;28;97426;-53
2022/11/08 00:43:17;;;;;;;71.30;51.05;;;17.40;75.30;;;;;;4938571;28;95145;-54
2022/11/08 00:45:43;;;;;;;73.00;51.33;;;17.40;75.30;;;;;;4949825;28;98562;-50
2022/11/08 00:48:09;;;;;;;70.65;50.92;;;17.40;75.20;;;;;;4944314;28;96021;-54
2022/11/08 00:50:38;;;;;;;72.00;50.88;;;17.40;75.30;;;;;;4951524;28;96618;-52
2022/11/08 00:53:03;;;;;;;71.85;51.33;;;17.40;75.30;;;;;;4940673;28;96036;-51
2022/11/08 00:55:29;;;;;;;71.43;51.13;;;17.40;75.20;;;;;;4945310;28;95989;-52
2022/11/08 00:57:54;;;;;;;71.88;51.08;;;17.40;75.10;;;;;;4943797;28;98317;-54
2022/11/08 01:00:20;;;;;;;71.15;51.25;;;17.40;75.10;;;;;;4941420;28;95794;-53
2022/11/08 01:02:46;;;;;;;72.75;51.42;;;17.40;75.00;;;;;;4953458;28;94867;-54
2022/11/08 01:05:12;;;;;;;72.32;51.33;;;17.40;75.10;;;;;;4939623;28;96092;-52
2022/11/08 01:07:37;;;;;;;71.95;51.25;;;17.40;75.00;;;;;;4948267;28;94484;-54
2022/11/08 01:10:04;;;;;;;71.32;51.28;;;17.40;74.90;;;;;;4943160;28;100491;-52
2022/11/08 01:12:30;;;;;;;71.30;51.38;;;17.40;75.00;;;;;;4942227;28;95671;-52
2022/11/08 01:14:56;;;;;;;70.80;51.08;;;17.30;74.90;;;;;;4944047;28;96197;-51
2022/11/08 01:17:22;;;;;;;71.78;50.95;;;17.40;75.00;;;;;;4953952;28;95626;-53
2022/11/08 01:19:47;;;;;;;71.75;51.05;;;17.30;74.90;;;;;;4950815;28;95441;-52
2022/11/08 01:22:13;;;;;;;71.20;51.33;;;17.30;74.90;;;;;;4950166;28;97097;-54
2022/11/08 01:24:39;;;;;;;71.18;51.05;;;17.30;74.90;;;;;;4945089;28;96851;-51
2022/11/08 01:27:04;;;;;;;71.55;51.42;;;17.30;75.00;;;;;;4942787;28;95292;-50
2022/11/08 01:29:31;;;;;;;70.47;50.83;;;17.30;75.00;;;;;;4947297;28;95535;-52
2022/11/08 01:31:57;;;;;;;72.82;51.08;;;17.30;74.90;;;;;;4952976;28;99051;-52
2022/11/08 01:34:22;;;;;;;71.32;51.05;;;17.30;75.00;;;;;;4943784;28;96253;-53
2022/11/08 01:36:48;;;;;;;71.63;51.05;;;17.30;75.00;;;;;;4954495;28;95663;-53
2022/11/08 01:39:15;;;;;;;71.47;51.08;;;17.30;74.90;;;;;;4954144;28;97010;-53
2022/11/08 01:41:40;;;;;;;73.38;51.20;;;17.30;74.90;;;;;;4952052;28;96400;-50
2022/11/08 01:44:14;;;;;;;71.00;50.92;;;17.30;75.00;;;;;;4950786;28;95552;-49
2022/11/08 01:46:43;;;;;;;73.07;51.10;;;17.30;75.00;;;;;;4945577;28;95313;-50
2022/11/08 01:49:29;;;;;;;70.13;50.97;;;17.30;74.90;;;;;;4939938;28;96025;-54
2022/11/08 01:52:10;;;;;;;71.22;51.15;;;17.30;75.10;;;;;;4946289;28;95484;-50
2022/11/08 01:54:36;;;;;;;72.63;51.03;;;17.20;75.00;;;;;;4949074;28;97013;-52
2022/11/08 01:57:05;;;;;;;70.85;51.25;;;17.20;74.80;;;;;;4949848;28;94234;-53
2022/11/08 01:59:34;;;;;;;70.60;50.70;;;17.20;74.90;;;;;;4949512;28;96415;-54
2022/11/08 02:02:00;;;;;;;71.18;51.15;;;17.20;74.90;;;;;;4949501;28;97713;-54
2022/11/08 02:04:26;;;;;;;72.15;50.88;;;17.20;74.80;;;;;;4949189;28;96595;-52
2022/11/08 02:06:52;;;;;;;72.25;50.85;;;17.20;74.70;;;;;;4941671;28;95761;-53
2022/11/08 02:09:18;;;;;;;71.40;50.58;;;17.20;74.90;;;;;;4940618;28;96167;-55
2022/11/08 02:11:46;;;;;;;70.43;50.60;;;17.20;75.10;;;;;;4941311;28;95868;-54
2022/11/08 02:14:13;;;;;;;69.90;50.78;;;17.20;75.00;;;;;;4954307;28;95228;-53
2022/11/08 02:16:39;;;;;;;71.70;50.63;;;17.20;75.00;;;;;;4946943;28;96422;-54
2022/11/08 02:19:10;;;;;;;70.40;51.25;;;17.20;74.90;;;;;;4949382;28;95243;-54
2022/11/08 02:22:00;;;;;;;71.20;50.95;;;17.20;74.90;;;;;;4945318;28;95149;-52
2022/11/08 02:24:26;;;;;;;72.75;50.97;;;17.20;74.90;;;;;;4946485;28;99104;-54
2022/11/08 02:26:53;;;;;;;71.10;50.75;;;17.20;74.80;;;;;;4943485;28;96810;-56
2022/11/08 02:29:32;;;;;;;70.55;50.60;;;17.20;74.90;;;;;;4940030;28;95881;-54
2022/11/08 02:31:59;;;;;;;72.05;50.95;;;17.20;74.90;;;;;;4947241;28;96410;-53
2022/11/08 02:34:31;;;;;;;70.13;50.80;;;17.10;74.90;;;;;;4943414;28;100535;-53
2022/11/08 02:36:58;;;;;;;70.88;50.95;;;17.10;74.90;;;;;;4956401;28;94968;-50
2022/11/08 02:39:24;;;;;;;71.18;50.75;;;17.10;74.90;;;;;;4943255;28;96409;-52
2022/11/08 02:41:50;;;;;;;71.03;50.80;;;17.10;74.80;;;;;;4937658;28;96705;-51
2022/11/08 02:44:15;;;;;;;72.47;51.28;;;17.10;74.80;;;;;;4943823;28;95474;-54
2022/11/08 02:46:41;;;;;;;73.30;50.85;;;17.10;74.70;;;;;;4952069;28;95206;-53
2022/11/08 02:49:07;;;;;;;70.75;50.78;;;17.10;74.80;;;;;;4939619;28;100240;-54
2022/11/08 02:51:32;;;;;;;70.07;50.72;;;17.10;74.80;;;;;;4946077;28;96846;-52
2022/11/08 02:53:58;;;;;;;69.35;50.33;;;17.10;74.90;;;;;;4943259;28;96410;-53
2022/11/08 02:56:23;;;;;;;70.75;50.70;;;17.10;74.80;;;;;;4942001;28;95401;-52
2022/11/08 02:58:49;;;;;;;69.70;50.53;;;17.10;74.70;;;;;;4948406;28;95908;-54
2022/11/08 03:01:15;;;;;;;70.15;50.80;;;17.10;74.90;;;;;;4942372;28;97472;-52
2022/11/08 03:03:40;;;;;;;69.55;50.65;;;17.10;74.70;;;;;;4952100;28;95696;-54
2022/11/08 03:06:06;;;;;;;70.78;50.97;;;17.10;74.80;;;;;;4947392;28;96708;-50
2022/11/08 03:08:32;;;;;;;69.65;50.72;;;17.10;74.90;;;;;;4936007;28;96547;-54
2022/11/08 03:11:00;;;;;;;70.97;50.72;;;17.00;74.70;;;;;;4941097;28;96428;-52
2022/11/08 03:13:26;;;;;;;72.03;50.38;;;17.10;74.70;;;;;;4950994;28;95303;-51
2022/11/08 03:15:51;;;;;;;70.05;50.83;;;17.00;75.50;;;;;;4943550;28;95961;-53
2022/11/08 03:18:17;;;;;;;69.80;50.75;;;17.10;74.90;;;;;;4954514;28;96021;-49
2022/11/08 03:20:43;;;;;;;70.53;50.92;;;17.10;74.80;;;;;;4946858;28;97267;-53
2022/11/08 03:23:08;;;;;;;70.35;50.95;;;17.10;74.80;;;;;;4950674;28;95075;-54
2022/11/08 03:25:34;;;;;;;69.50;50.33;;;17.00;74.60;;;;;;4945557;28;95549;-54
2022/11/08 03:28:07;;;;;;;70.80;50.92;;;17.00;74.60;;;;;;4943647;28;94909;-53
2022/11/08 03:30:34;;;;;;;70.95;51.08;;;17.00;74.60;;;;;;4947311;28;95583;-51
2022/11/08 03:33:00;;;;;;;70.25;50.65;;;17.00;74.70;;;;;;4948458;28;95120;-53
2022/11/08 03:35:26;;;;;;;73.22;50.53;;;17.00;74.60;;;;;;4947996;28;94433;-55
2022/11/08 03:37:53;;;;;;;70.32;50.70;;;17.00;74.60;;;;;;4960120;28;95782;-53
2022/11/08 03:40:19;;;;;;;69.80;50.35;;;17.10;74.60;;;;;;4941469;28;96979;-53
2022/11/08 03:42:45;;;;;;;69.72;50.35;;;17.00;74.60;;;;;;4951769;28;96120;-52
2022/11/08 03:45:12;;;;;;;70.60;51.08;;;17.00;74.60;;;;;;4944175;28;98219;-52
2022/11/08 03:47:42;;;;;;;69.93;50.90;;;17.00;74.60;;;;;;4945043;28;95898;-53
2022/11/08 03:50:08;;;;;;;70.65;50.78;;;17.00;74.50;;;;;;4946462;28;95589;-53
2022/11/08 03:52:41;;;;;;;70.07;50.95;;;17.00;74.40;;;;;;4949977;28;95150;-51
2022/11/08 03:55:09;;;;;;;70.35;50.53;;;17.00;74.60;;;;;;4950850;28;95346;-52
2022/11/08 03:57:35;;;;;;;70.60;50.50;;;17.00;74.60;;;;;;4944251;28;97273;-55
2022/11/08 04:00:01;;;;;;;69.32;50.67;;;17.00;74.40;;;;;;4938541;28;95018;-51
2022/11/08 04:02:26;;;;;;;70.40;50.65;;;17.00;74.40;;;;;;4950233;28;95978;-52
2022/11/08 04:04:52;;;;;;;69.65;50.67;;;17.00;74.50;;;;;;4944409;28;96798;-53
2022/11/08 04:07:18;;;;;;;69.82;51.13;;;17.00;74.40;;;;;;4935388;28;97202;-53
2022/11/08 04:09:43;;;;;;;69.82;50.55;;;17.00;74.50;;;;;;4953499;28;95841;-54
2022/11/08 04:23:06;;;;;;;71.13;50.70;;;17.00;74.40;;;;;;4943637;28;95556;-50
2022/11/08 04:25:31;;;;;;;70.30;50.90;;;17.00;74.40;;;;;;4946762;28;98251;-53
2022/11/08 04:27:57;;;;;;;69.72;50.72;;;17.00;74.30;;;;;;4945609;28;98098;-53
2022/11/08 04:30:23;;;;;;;69.20;50.58;;;17.00;74.30;;;;;;4950093;28;95287;-50
2022/11/08 04:32:48;;;;;;;70.45;50.60;;;17.00;74.30;;;;;;4940586;28;99841;-54
2022/11/08 04:35:14;;;;;;;70.90;50.58;;;17.00;74.30;;;;;;4944183;28;95349;-51
2022/11/08 04:37:40;;;;;;;71.80;51.20;;;16.90;74.30;;;;;;4940431;28;95417;-52
2022/11/08 04:40:06;;;;;;;70.60;50.65;;;16.90;74.20;;;;;;4937808;28;95218;-54
2022/11/08 04:42:31;;;;;;;70.32;50.38;;;17.00;74.30;;;;;;4947792;28;96623;-53
2022/11/08 04:44:57;;;;;;;68.85;50.40;;;16.90;74.20;;;;;;4956945;28;95976;-54
2022/11/08 04:47:23;;;;;;;70.05;50.40;;;16.90;74.20;;;;;;4945934;28;96924;-53
2022/11/08 04:49:48;;;;;;;70.90;50.17;;;16.90;74.20;;;;;;4942025;28;95355;-51
2022/11/08 04:52:15;;;;;;;69.43;50.20;;;16.90;74.30;;;;;;4945691;28;96357;-54
2022/11/08 04:54:44;;;;;;;70.90;50.25;;;16.90;74.20;;;;;;4953046;28;95490;-53
2022/11/08 04:57:11;;;;;;;70.00;50.50;;;16.90;74.20;;;;;;4936967;28;99108;-51
2022/11/08 04:59:36;;;;;;;68.93;50.60;;;16.90;74.30;;;;;;4945790;28;96470;-53
2022/11/08 05:02:02;;;;;;;68.55;50.13;;;16.90;74.20;;;;;;4930713;28;95876;-54
2022/11/08 05:04:28;;;;;;;70.28;50.72;;;16.90;74.50;;;;;;4933104;28;95259;-55
2022/11/08 05:06:54;;;;;;;69.00;50.65;;;16.90;74.10;;;;;;4950157;28;96017;-55
2022/11/08 05:09:19;;;;;;;70.55;50.65;;;16.90;74.20;;;;;;4946468;28;95219;-55
2022/11/08 05:11:45;;;;;;;69.70;50.53;;;16.90;74.20;;;;;;4941697;28;95209;-55
2022/11/08 05:14:11;;;;;;;69.93;50.83;;;16.90;74.30;;;;;;4945121;28;95037;-53
2022/11/08 05:16:36;;;;;;;69.75;50.65;;;16.90;74.30;;;;;;4932638;28;95150;-54
2022/11/08 05:19:02;;;;;;;68.95;50.50;;;16.90;74.20;;;;;;4937652;28;96030;-52
2022/11/08 05:24:14;;;;;;;71.07;50.42;;;16.90;74.20;;;;;;4951966;28;95091;-52
2022/11/08 05:26:42;;;;;;;69.95;50.53;;;16.90;74.20;;;;;;4951822;28;95548;-52
2022/11/08 05:29:09;;;;;;;69.82;50.78;;;16.90;74.20;;;;;;4946052;28;99126;-54
2022/11/08 05:31:34;;;;;;;70.07;50.72;;;16.90;74.30;;;;;;4945580;28;95239;-53
2022/11/08 05:34:00;;;;;;;70.68;50.50;;;16.80;74.30;;;;;;4946680;28;95701;-54
2022/11/08 05:36:27;;;;;;;70.28;50.85;;;16.80;74.20;;;;;;4939639;28;95702;-49
2022/11/08 05:38:53;;;;;;;70.70;51.28;;;16.90;74.30;;;;;;4942864;28;95323;-53
2022/11/08 05:41:20;;;;;;;69.18;50.42;;;16.80;74.20;;;;;;4946832;28;95102;-54
2022/11/08 05:43:50;;;;;;;69.38;50.63;;;16.80;74.30;;;;;;4941348;28;98539;-52
2022/11/08 05:46:17;;;;;;;70.05;50.85;;;16.80;74.30;;;;;;4945861;28;97289;-53
2022/11/08 05:48:43;;;;;;;71.00;50.63;;;16.80;74.30;;;;;;4940781;28;98720;-55
2022/11/08 05:51:10;;;;;;;72.38;51.00;;;16.80;74.30;;;;;;4952445;28;95324;-57
2022/11/08 05:53:37;;;;;;;70.20;50.97;;;16.80;74.20;;;;;;4946615;28;94877;-55
2022/11/08 05:56:03;;;;;;;69.70;50.50;;;16.80;74.30;;;;;;4947169;28;95545;-53
2022/11/08 05:58:31;;;;;;;71.15;51.10;;;16.80;74.10;;;;;;4943250;28;95329;-54
2022/11/08 06:01:11;;;;;;;74.38;51.00;;;16.80;74.30;;;;;;4944931;28;95173;-57
2022/11/08 06:03:37;;;;;;;71.82;50.70;;;16.80;74.30;;;;;;4938551;28;96229;-49
2022/11/08 06:06:08;;;;;;;72.95;50.72;;;16.80;74.40;;;;;;4953434;28;95989;-51
2022/11/08 06:08:34;;;;;;;70.50;50.95;;;16.80;74.40;;;;;;4938066;28;95489;-53
2022/11/08 06:11:04;;;;;;;70.30;51.13;;;16.80;74.60;;;;;;4937751;28;95953;-52
2022/11/08 06:13:30;;;;;;;74.03;50.75;;;16.90;74.60;;;;;;4943142;28;95196;-54
2022/11/08 06:15:59;;;;;;;70.40;50.70;;;16.80;74.50;;;;;;4941421;28;99610;-54
2022/11/08 06:18:25;;;;;;;75.60;51.22;;;16.80;74.60;;;;;;4943602;28;96825;-53
2022/11/08 06:20:51;;;;;;;75.78;51.33;;;16.80;74.60;;;;;;4945923;28;95146;-52
2022/11/08 06:23:16;;;;;;;71.60;50.67;;;16.80;74.50;;;;;;4940945;28;95108;-53
2022/11/08 06:25:42;;;;;;;75.68;51.00;;;16.80;74.70;;;;;;4949324;28;97759;-53
2022/11/08 06:28:07;;;;;;;79.80;52.33;;;16.80;74.60;;;;;;4950666;28;94976;-52
2022/11/08 06:30:33;;;;;;;73.70;51.25;;;16.80;74.60;;;;;;4952259;28;95255;-54
2022/11/08 06:32:59;;;;;;;74.65;51.75;;;16.80;74.60;;;;;;4948180;28;97901;-54
2022/11/08 06:35:25;;;;;;;77.65;52.03;;;16.80;74.60;;;;;;4950128;28;96960;-53
2022/11/08 06:37:50;;;;;;;77.90;52.20;;;16.80;74.50;;;;;;4949186;28;96283;-53
2022/11/08 06:40:16;;;;;;;78.35;51.90;;;16.80;74.30;;;;;;4946778;28;95076;-53
2022/11/08 06:42:42;;;;;;;75.88;52.08;;;16.80;74.20;;;;;;4948835;28;97388;-53
2022/11/08 06:45:07;;;;;;;77.97;52.58;;;16.80;74.00;;;;;;4939134;28;97066;-52
2022/11/08 06:47:33;;;;;;;76.55;52.03;;;16.80;73.80;;;;;;4939364;28;95147;-54
2022/11/08 06:49:59;;;;;;;80.20;52.53;;;16.80;73.50;;;;;;4939817;28;98083;-54
2022/11/08 06:52:24;;;;;;;76.15;51.60;;;16.80;73.60;;;;;;4950360;28;94640;-54
2022/11/08 06:54:51;;;;;;;75.82;51.90;;;16.80;73.60;;;;;;4949701;28;94701;-52
2022/11/08 06:57:17;;;;;;;71.72;51.67;;;16.70;73.70;;;;;;4954897;28;95029;-52
2022/11/08 06:59:42;;;;;;;77.43;52.42;;;16.70;73.80;;;;;;4953531;28;96124;-52
2022/11/08 07:02:10;;;;;;;76.95;52.55;;;16.80;74.10;;;;;;4959026;28;95148;-52
2022/11/08 07:04:35;;;;;;;78.80;52.88;;;16.70;74.30;;;;;;4941870;28;97265;-54
2022/11/08 07:07:01;;;;;;;77.25;51.83;;;16.70;74.50;;;;;;4953278;28;99952;-53
2022/11/08 07:09:27;;;;;;;74.93;52.10;;;16.70;74.50;;;;;;4945483;28;95335;-53
2022/11/08 07:11:52;;;;;;;75.28;52.35;;;16.70;74.60;;;;;;4943753;28;95207;-52
2022/11/08 07:14:18;;;;;;;76.97;52.28;;;16.70;74.70;;;;;;4948391;28;95470;-53
2022/11/08 07:16:44;;;;;;;77.10;52.22;;;16.70;74.80;;;;;;4949078;28;95318;-51
2022/11/08 07:19:09;;;;;;;76.93;52.08;;;16.70;74.90;;;;;;4947010;28;96332;-53
2022/11/08 07:21:35;;;;;;;79.95;53.25;;;16.70;75.00;;;;;;4952054;28;95205;-50
2022/11/08 07:24:01;;;;;;;78.25;52.65;;;16.70;75.00;;;;;;4956188;28;96655;-52
2022/11/08 07:26:26;;;;;;;75.32;51.88;;;16.70;74.90;;;;;;4953893;28;101122;-51
2022/11/08 07:28:52;;;;;;;75.53;51.90;;;16.70;75.70;;;;;;4952676;28;95540;-50
2022/11/08 07:31:17;;;;;;;76.18;52.20;;;16.70;74.90;;;;;;4954810;28;98907;-54
2022/11/08 07:33:43;;;;;;;76.22;52.05;;;16.70;75.00;;;;;;4949194;28;95545;-54
2022/11/08 07:36:09;;;;;;;76.82;52.78;;;16.70;75.00;;;;;;4953246;28;95384;-53
2022/11/08 07:38:34;;;;;;;75.68;52.58;;;16.70;75.00;;;;;;4952520;28;94656;-52
2022/11/08 07:41:01;;;;;;;77.63;51.80;;;16.80;75.00;;;;;;4945604;28;94425;-54
2022/11/08 07:43:28;;;;;;;78.43;52.90;;;16.70;75.00;;;;;;4955010;28;100475;-53
2022/11/08 07:45:58;;;;;;;77.13;52.30;;;16.70;75.00;;;;;;4950623;28;94954;-53
2022/11/08 07:48:26;;;;;;;74.82;52.05;;;16.70;74.90;;;;;;4949337;28;96213;-55
2022/11/08 07:50:52;;;;;;;72.68;52.05;;;16.70;74.90;;;;;;4948774;28;95154;-52
2022/11/08 07:53:18;;;;;;;73.60;51.58;;;16.70;74.90;;;;;;4949177;28;96591;-53
2022/11/08 07:55:45;;;;;;;72.43;51.50;;;16.70;74.90;;;;;;4951469;28;96281;-52
2022/11/08 07:58:10;;;;;;;72.75;51.67;;;16.80;75.00;;;;;;4957980;28;95376;-50
2022/11/08 08:00:38;;;;;;;72.40;51.45;;;16.80;74.80;;;;;;4949755;28;94938;-52
2022/11/08 08:03:05;;;;;;;72.40;51.70;;;16.70;74.70;;;;;;4949657;28;95795;-54
2022/11/08 08:05:36;;;;;;;76.18;51.42;;;16.80;74.80;;;;;;4948841;28;95015;-54
2022/11/08 08:08:03;;;;;;;72.50;51.78;;;16.80;74.80;;;;;;4955749;28;95133;-53
2022/11/08 08:10:29;;;;;;;73.63;51.72;;;16.80;74.80;;;;;;4960424;28;95103;-51
2022/11/08 08:12:56;;;;;;;73.05;51.72;;;16.80;74.90;;;;;;4950670;28;97826;-54
2022/11/08 08:15:22;;;;;;;74.63;51.88;;;16.80;74.80;;;;;;4946108;28;96125;-54
2022/11/08 08:17:47;;;;;;;76.85;52.15;;;16.80;74.70;;;;;;4955713;28;97128;-53
2022/11/08 08:20:14;;;;;;;73.93;52.08;;;16.80;74.80;;;;;;4954141;28;97881;-54
2022/11/08 08:22:50;;;;;;;74.13;51.47;;;16.80;74.80;;;;;;4956176;28;96084;-53
2022/11/08 08:25:16;;;;;;;73.57;51.72;;;16.80;74.70;;;;;;4953510;28;97143;-54
2022/11/08 08:27:46;;;;;;;72.90;51.78;;;16.80;74.80;;;;;;4956185;28;95071;-53
2022/11/08 08:30:13;;;;;;;73.22;51.35;;;16.80;74.70;;;;;;4957534;28;95549;-54
2022/11/08 08:32:38;;;;;;;74.10;51.55;;;16.80;74.60;;;;;;4949029;28;95838;-54
2022/11/08 08:35:04;;;;;;;73.03;52.10;;;16.80;74.70;;;;;;4945688;28;97538;-50
2022/11/08 08:37:30;;;;;;;73.93;51.55;;;16.80;74.60;;;;;;4955564;28;95859;-56
2022/11/08 08:39:55;;;;;;;72.55;51.85;;;16.80;74.60;;;;;;4958347;28;94889;-52
2022/11/08 08:42:21;;;;;;;71.45;51.20;;;16.80;74.60;;;;;;4950455;28;95692;-54
2022/11/08 08:44:47;;;;;;;71.85;51.35;;;16.80;74.40;;;;;;4951345;28;95543;-54
2022/11/08 08:47:12;;;;;;;73.60;51.55;;;16.80;74.30;;;;;;4953017;28;95361;-52
2022/11/08 08:49:38;;;;;;;72.05;51.70;;;16.80;74.30;;;;;;4955318;28;99411;-53
2022/11/08 08:52:04;;;;;;;73.35;51.65;;;16.80;75.00;;;;;;4948311;28;95730;-55
2022/11/08 08:54:29;;;;;;;72.35;51.50;;;16.90;74.20;;;;;;4956002;28;95589;-52
2022/11/08 08:56:55;;;;;;;72.38;51.67;;;16.90;74.20;;;;;;4946825;28;95231;-49
2022/11/08 08:59:20;;;;;;;72.35;51.47;;;16.80;74.10;;;;;;4947908;28;97533;-51
2022/11/08 09:01:46;;;;;;;72.80;51.25;;;16.80;74.20;;;;;;4945926;28;96321;-50
2022/11/08 09:04:12;;;;;;;73.68;51.80;;;16.90;74.10;;;;;;4948977;28;96754;-51
2022/11/08 09:06:37;;;;;;;72.68;51.92;;;16.90;74.10;;;;;;4948219;28;97691;-54
2022/11/08 09:09:03;;;;;;;71.88;50.92;;;16.90;74.10;;;;;;4949035;28;94761;-53
2022/11/08 09:11:29;;;;;;;71.43;51.05;;;16.90;74.00;;;;;;4949456;28;96652;-53
2022/11/08 09:13:54;;;;;;;72.30;51.50;;;16.90;74.00;;;;;;4950433;28;96701;-51
2022/11/08 09:16:20;;;;;;;72.57;51.83;;;16.90;74.00;;;;;;4947560;28;96786;-53
2022/11/08 09:18:46;;;;;;;72.13;51.35;;;16.90;74.00;;;;;;4949240;28;95888;-53
2022/11/08 09:21:11;;;;;;;73.05;51.47;;;16.90;74.00;;;;;;4943635;28;95489;-53
2022/11/08 09:23:37;;;;;;;72.38;51.17;;;16.90;74.00;;;;;;4949569;28;94718;-52
2022/11/08 09:26:04;;;;;;;72.43;51.22;;;16.90;73.90;;;;;;4950517;28;96906;-52
2022/11/08 09:28:32;;;;;;;72.07;51.45;;;16.90;73.80;;;;;;4951095;28;95156;-51
2022/11/08 09:31:09;;;;;;;72.93;51.58;;;16.90;73.70;;;;;;4952616;28;95948;-50
2022/11/08 09:33:35;;;;;;;71.10;51.10;;;16.90;73.70;;;;;;4941624;28;98189;-51
2022/11/08 09:36:02;;;;;;;71.95;51.65;;;16.90;73.70;;;;;;4945800;28;97045;-53
2022/11/08 09:38:29;;;;;;;72.57;51.30;;;16.90;73.70;;;;;;4947550;28;96874;-49
2022/11/08 09:41:35;;;;;;;74.70;51.53;;;16.90;73.60;;;;;;4943630;28;98228;-53
2022/11/08 09:44:21;;;;;;;72.82;51.47;;;16.90;73.60;;;;;;4942536;28;94563;-51
2022/11/08 09:46:51;;;;;;;72.45;51.15;;;16.90;73.60;;;;;;4957275;28;95182;-52
2022/11/08 09:49:37;;;;;;;72.40;51.37;;;17.00;73.60;;;;;;4946780;28;95105;-48
2022/11/08 09:52:04;;;;;;;72.07;51.20;;;16.90;73.40;;;;;;4955545;28;96329;-51
2022/11/08 09:54:41;;;;;;;73.00;51.53;;;16.90;73.50;;;;;;4954697;28;95113;-50
2022/11/08 09:57:21;;;;;;;71.80;51.58;;;17.00;73.50;;;;;;4952424;28;98063;-52
2022/11/08 09:59:53;;;;;;;71.20;51.30;;;16.90;73.40;;;;;;4952304;28;97543;-53
2022/11/08 10:02:21;;;;;;;73.00;51.30;;;17.00;73.40;;;;;;4947798;28;95612;-55
2022/11/08 10:05:11;;;;;;;71.35;51.55;;;17.00;73.40;;;;;;4949828;28;95068;-51
2022/11/08 10:07:49;;;;;;;71.25;51.58;;;17.00;73.30;;;;;;4953970;28;94816;-53
2022/11/08 10:10:29;;;;;;;72.55;51.33;;;17.00;73.20;;;;;;4951246;28;96924;-51
2022/11/08 10:13:07;;;;;;;72.88;51.17;;;17.00;73.10;;;;;;4952508;28;98099;-50
2022/11/08 10:15:57;;;;;;;75.90;51.17;;;17.00;73.10;;;;;;4947577;28;96683;-53
2022/11/08 10:18:28;;;;;;;72.63;50.95;;;17.00;73.10;;;;;;4946510;28;95944;-52
2022/11/08 10:20:53;;;;;;;72.72;51.30;;;17.00;73.00;;;;;;4952268;28;95162;-53
2022/11/08 10:23:25;;;;;;;73.90;51.63;;;17.00;73.00;;;;;;4947983;28;101313;-52
2022/11/08 10:25:54;;;;;;;;;;;17.00;73.00;;;;;;4951370;28;95506;-52
2022/11/08 10:28:33;;;;;;;72.20;51.53;;;17.00;72.90;;;;;;4951254;28;95218;-53
2022/11/08 10:30:59;;;;;;;71.75;51.22;;;17.10;73.10;;;;;;4953988;28;96708;-50
2022/11/08 10:33:55;;;;;;;71.85;50.95;;;17.00;73.00;;;;;;4943770;28;95448;-51
2022/11/08 10:36:31;;;;;;;72.82;50.95;;;17.00;72.90;;;;;;4957599;28;94296;-53
2022/11/08 10:39:02;;;;;;;72.47;51.50;;;17.10;73.00;;;;;;4951295;28;95275;-55
2022/11/08 10:41:48;;;;;;;72.60;51.13;;;17.00;72.90;;;;;;4959310;28;95050;-52
2022/11/08 10:44:19;;;;;;;72.07;51.00;;;17.10;72.90;;;;;;4952618;28;96308;-52
2022/11/08 10:46:59;;;;;;;71.93;51.00;;;17.10;72.90;;;;;;4963457;28;95021;-51
2022/11/08 10:49:26;;;;;;;74.20;51.15;;;17.10;72.90;;;;;;4949651;28;95032;-50
2022/11/08 10:51:55;;;;;;;71.35;51.13;;;17.10;72.90;;;;;;4956838;28;95093;-52
2022/11/08 10:54:40;;;;;;;73.10;51.33;;;17.10;72.80;;;;;;4950759;28;95985;-50
2022/11/08 10:57:08;;;;;;;71.18;51.08;;;17.10;72.80;;;;;;4947747;28;98315;-50
2022/11/08 10:59:33;;;;;;;71.82;51.17;;;17.10;72.80;;;;;;4951315;28;95224;-53
2022/11/08 11:01:59;;;;;;;71.70;51.42;;;17.10;72.90;;;;;;4954315;28;94552;-50
2022/11/08 11:04:31;;;;;;;73.00;51.47;;;17.10;73.00;;;;;;4947607;28;96520;-51
2022/11/08 11:07:24;;;;;;;72.80;51.58;;;17.10;73.00;;;;;;4950874;28;96609;-52
2022/11/08 11:09:50;;;;;;;72.13;51.10;;;17.10;73.00;;;;;;4950838;28;96922;-52
2022/11/08 11:12:15;;;;;;;74.32;51.25;;;17.10;73.10;;;;;;4951212;28;95495;-52
2022/11/08 11:14:41;;;;;;;70.95;51.00;;;17.10;73.20;;;;;;4952637;28;95925;-51
2022/11/08 11:17:14;;;;;;;74.38;51.80;;;17.10;73.20;;;;;;4949040;28;96332;-51
2022/11/08 11:19:50;;;;;;;71.40;51.30;;;17.10;73.30;;;;;;4950386;28;97030;-49
2022/11/08 11:22:32;;;;;;;73.18;51.70;;;17.10;73.30;;;;;;4950430;28;96269;-52
2022/11/08 11:25:17;;;;;;;71.10;51.03;;;17.20;73.30;;;;;;4948024;28;95616;-53
2022/11/08 11:27:53;;;;;;;71.45;51.10;;;17.20;73.30;;;;;;4955178;28;95006;-52
2022/11/08 11:30:21;;;;;;;72.45;51.17;;;17.20;73.30;;;;;;4952694;28;95056;-53
2022/11/08 11:33:22;;;;;;;74.15;51.28;;;17.20;73.20;;;;;;4949845;28;95046;-52
2022/11/08 11:35:56;;;;;;;71.90;51.22;;;17.20;73.10;;;;;;4951951;28;96943;-54
2022/11/08 11:38:37;;;;;;;73.00;51.08;;;17.20;73.30;;;;;;4950034;28;95941;-50
2022/11/08 11:41:11;;;;;;;73.53;51.45;;;17.20;73.10;;;;;;4961675;28;95613;-51
2022/11/08 11:43:55;;;;;;;71.57;51.40;;;17.20;73.10;;;;;;4959604;28;95918;-54
2022/11/08 11:46:33;;;;;;;72.55;51.35;;;17.20;73.10;;;;;;4954493;28;96005;-52
2022/11/08 11:49:01;;;;;;;74.03;51.70;;;17.20;73.00;;;;;;4943809;28;94865;-52
2022/11/08 11:51:29;;;;;;;73.05;51.30;;;17.20;73.00;;;;;;4949845;28;95079;-50
2022/11/08 11:53:55;;;;;;;71.22;50.97;;;17.20;72.90;;;;;;4950209;28;99790;-50
2022/11/08 11:56:42;;;;;;;71.80;51.58;;;17.30;73.00;;;;;;4944789;28;96218;-50
2022/11/08 11:59:38;;;;;;;72.10;51.10;;;17.20;73.00;;;;;;4948608;28;97300;-51
2022/11/08 12:02:13;;;;;;;71.55;51.45;;;17.20;73.00;;;;;;4953465;28;95698;-49
2022/11/08 12:05:09;;;;;;;73.40;51.10;;;17.20;73.00;;;;;;4946993;28;95187;-51
2022/11/08 12:07:44;;;;;;;71.50;51.08;;;17.30;72.90;;;;;;4949660;28;95510;-54
2022/11/08 12:10:47;;;;;;;73.93;52.15;;;17.30;72.80;;;;;;4953520;28;95327;-50
2022/11/08 12:13:30;;;;;;;73.82;51.35;;;17.30;72.70;;;;;;4938221;28;95041;-50
2022/11/08 12:16:09;;;;;;;72.55;51.05;;;17.30;72.70;;;;;;4947992;28;97143;-53
2022/11/08 12:18:43;;;;;;;73.68;51.13;;;17.30;72.60;;;;;;4951540;28;95468;-54
2022/11/08 12:21:13;;;;;;;71.80;51.13;;;17.30;72.60;;;;;;4952463;28;95072;-51
2022/11/08 12:23:46;;;;;;;71.63;51.33;;;17.30;72.60;;;;;;4948026;28;95431;-49
2022/11/08 12:26:18;;;;;;;73.25;51.25;;;17.30;72.50;;;;;;4948506;28;96474;-53
2022/11/08 12:28:55;;;;;;;;;;;17.30;72.60;;;;;;4950183;28;97815;-52
2022/11/08 12:31:43;;;;;;;73.25;51.47;;;17.30;72.50;;;;;;4947270;28;97497;-48
2022/11/08 12:34:18;;;;;;;72.68;51.67;;;17.30;72.50;;;;;;4951544;28;96750;-50
2022/11/08 12:36:50;;;;;;;73.05;51.47;;;17.30;72.50;;;;;;4959669;28;94786;-51
2022/11/08 12:39:23;;;;;;;72.15;51.15;;;17.30;72.50;;;;;;4955040;28;95722;-53
2022/11/08 12:42:25;;;;;;;72.93;51.72;;;17.30;72.60;;;;;;4955497;28;96331;-52
2022/11/08 12:45:19;;;;;;;73.00;51.30;;;17.30;72.50;;;;;;4948318;28;95230;-50
2022/11/08 12:48:22;;;;;;;72.65;51.05;;;17.30;72.50;;;;;;4946617;28;94329;-53
2022/11/08 12:51:06;;;;;;;73.45;51.40;;;17.30;72.50;;;;;;4927324;28;95176;-50
2022/11/08 12:53:59;;;;;;;72.80;51.67;;;17.30;72.50;;;;;;4947585;28;95251;-52
2022/11/08 12:56:32;;;;;;;72.78;51.78;;;17.30;72.50;;;;;;4942590;28;96964;-51
2022/11/08 12:58:58;;;;;;;75.80;51.10;;;17.40;72.50;;;;;;4952933;28;94933;-50
2022/11/08 13:01:24;;;;;;;73.40;51.38;;;17.40;72.50;;;;;;4940195;28;98475;-51